sensor_id;sensor_type;location;lat;lon;timestamp;pressure;altitude;pressure_sealevel;temperature;humidity
28306;BME280;7516;43.570;1.448;2023-12-07T00:01:36;99763.66;;;3.13;100.00
28306;BME280;7516;43.570;1.448;2023-12-07T00:04:05;99754.97;;;3.14;100.00
28306;BME280;7516;43.570;1.448;2023-12-07T00:06:33;99747.31;;;3.13;100.00
28306;BME280;7516;43.570;1.448;2023-12-07T00:09:01;99732.38;;;3.16;100.00
28306;BME280;7516;43.570;1.448;2023-12-07T00:11:28;99733.66;;;3.11;100.00
28306;BME280;7516;43.570;1.448;2023-12-07T00:13:56;99738.84;;;3.11;100.00
28306;BME280;7516;43.570;1.448;2023-12-07T00:16:23;99744.75;;;3.01;100.00
28306;BME280;7516;43.570;1.448;2023-12-07T00:18:51;99746.91;;;2.96;100.00
28306;BME280;7516;43.570;1.448;2023-12-07T00:21:19;99746.44;;;2.91;100.00
28306;BME280;7516;43.570;1.448;2023-12-07T00:23:47;99752.44;;;2.92;100.00
28306;BME280;7516;43.570;1.448;2023-12-07T00:26:14;99753.72;;;2.97;100.00
28306;BME280;7516;43.570;1.448;2023-12-07T00:28:42;99749.84;;;2.92;100.00
28306;BME280;7516;43.570;1.448;2023-12-07T00:31:10;99757.25;;;2.96;100.00
28306;BME280;7516;43.570;1.448;2023-12-07T00:33:37;99751.03;;;2.99;100.00
28306;BME280;7516;43.570;1.448;2023-12-07T00:36:05;99750.22;;;2.87;100.00
28306;BME280;7516;43.570;1.448;2023-12-07T00:38:34;99740.59;;;2.89;100.00
28306;BME280;7516;43.570;1.448;2023-12-07T00:41:02;99751.16;;;2.86;100.00
28306;BME280;7516;43.570;1.448;2023-12-07T00:43:29;99748.13;;;2.81;100.00
28306;BME280;7516;43.570;1.448;2023-12-07T00:45:57;99767.78;;;2.73;100.00
28306;BME280;7516;43.570;1.448;2023-12-07T00:48:24;99770.94;;;2.76;100.00
28306;BME280;7516;43.570;1.448;2023-12-07T00:50:52;99774.56;;;2.85;100.00
28306;BME280;7516;43.570;1.448;2023-12-07T00:53:19;99772.34;;;2.80;100.00
28306;BME280;7516;43.570;1.448;2023-12-07T00:55:48;99770.44;;;2.82;100.00
28306;BME280;7516;43.570;1.448;2023-12-07T00:58:16;99763.78;;;2.80;100.00
28306;BME280;7516;43.570;1.448;2023-12-07T01:00:43;99772.34;;;2.80;100.00
28306;BME280;7516;43.570;1.448;2023-12-07T01:03:10;99772.59;;;2.77;100.00
28306;BME280;7516;43.570;1.448;2023-12-07T01:05:38;99770.22;;;2.74;100.00
28306;BME280;7516;43.570;1.448;2023-12-07T01:08:05;99774.47;;;2.75;100.00
28306;BME280;7516;43.570;1.448;2023-12-07T01:10:33;99778.81;;;2.75;100.00
28306;BME280;7516;43.570;1.448;2023-12-07T01:13:02;99774.03;;;2.70;100.00
28306;BME280;7516;43.570;1.448;2023-12-07T01:15:29;99780.72;;;2.73;100.00
28306;BME280;7516;43.570;1.448;2023-12-07T01:17:57;99784.72;;;2.65;100.00
28306;BME280;7516;43.570;1.448;2023-12-07T01:20:24;99782.00;;;2.67;100.00
28306;BME280;7516;43.570;1.448;2023-12-07T01:22:54;99789.06;;;2.65;100.00
28306;BME280;7516;43.570;1.448;2023-12-07T01:25:21;99781.06;;;2.68;100.00
28306;BME280;7516;43.570;1.448;2023-12-07T01:27:48;99773.09;;;2.71;100.00
28306;BME280;7516;43.570;1.448;2023-12-07T01:30:17;99778.59;;;2.67;100.00
28306;BME280;7516;43.570;1.448;2023-12-07T01:32:45;99784.25;;;2.60;100.00
28306;BME280;7516;43.570;1.448;2023-12-07T01:35:13;99787.19;;;2.67;100.00
28306;BME280;7516;43.570;1.448;2023-12-07T01:37:40;99790.72;;;2.66;100.00
28306;BME280;7516;43.570;1.448;2023-12-07T01:40:08;99776.28;;;2.63;100.00
28306;BME280;7516;43.570;1.448;2023-12-07T01:42:37;99775.56;;;2.61;100.00
28306;BME280;7516;43.570;1.448;2023-12-07T01:45:05;99765.81;;;2.54;100.00
28306;BME280;7516;43.570;1.448;2023-12-07T01:47:35;99767.38;;;2.45;100.00
28306;BME280;7516;43.570;1.448;2023-12-07T01:50:05;99756.88;;;2.47;100.00
28306;BME280;7516;43.570;1.448;2023-12-07T01:52:33;99752.91;;;2.43;100.00
28306;BME280;7516;43.570;1.448;2023-12-07T01:55:03;99755.72;;;2.40;100.00
28306;BME280;7516;43.570;1.448;2023-12-07T01:57:31;99750.53;;;2.40;100.00
28306;BME280;7516;43.570;1.448;2023-12-07T01:59:59;99755.97;;;2.37;100.00
28306;BME280;7516;43.570;1.448;2023-12-07T02:02:27;99754.44;;;2.34;100.00
28306;BME280;7516;43.570;1.448;2023-12-07T02:04:56;99754.78;;;2.41;100.00
28306;BME280;7516;43.570;1.448;2023-12-07T02:07:24;99761.22;;;2.46;100.00
28306;BME280;7516;43.570;1.448;2023-12-07T02:09:51;99769.56;;;2.39;100.00
28306;BME280;7516;43.570;1.448;2023-12-07T02:12:19;99758.41;;;2.49;100.00
28306;BME280;7516;43.570;1.448;2023-12-07T02:14:47;99750.66;;;2.38;100.00
28306;BME280;7516;43.570;1.448;2023-12-07T02:17:18;99755.97;;;2.37;100.00
28306;BME280;7516;43.570;1.448;2023-12-07T02:19:55;99756.66;;;2.39;100.00
28306;BME280;7516;43.570;1.448;2023-12-07T02:22:27;99762.31;;;2.44;100.00
28306;BME280;7516;43.570;1.448;2023-12-07T02:25:06;99760.06;;;2.39;100.00
28306;BME280;7516;43.570;1.448;2023-12-07T02:27:40;99757.25;;;2.42;100.00
28306;BME280;7516;43.570;1.448;2023-12-07T02:30:09;99767.47;;;2.44;100.00
28306;BME280;7516;43.570;1.448;2023-12-07T02:32:37;99763.72;;;2.37;100.00
28306;BME280;7516;43.570;1.448;2023-12-07T02:35:06;99767.25;;;2.36;100.00
28306;BME280;7516;43.570;1.448;2023-12-07T02:37:40;99768.91;;;2.37;100.00
28306;BME280;7516;43.570;1.448;2023-12-07T02:40:11;99770.78;;;2.35;100.00
28306;BME280;7516;43.570;1.448;2023-12-07T02:42:42;99767.13;;;2.26;100.00
28306;BME280;7516;43.570;1.448;2023-12-07T02:45:11;99760.91;;;2.29;100.00
28306;BME280;7516;43.570;1.448;2023-12-07T02:47:39;99754.09;;;2.28;100.00
28306;BME280;7516;43.570;1.448;2023-12-07T02:50:08;99751.03;;;2.22;100.00
28306;BME280;7516;43.570;1.448;2023-12-07T02:52:36;99749.16;;;2.13;100.00
28306;BME280;7516;43.570;1.448;2023-12-07T02:55:04;99739.53;;;2.15;100.00
28306;BME280;7516;43.570;1.448;2023-12-07T02:57:32;99733.31;;;2.18;100.00
28306;BME280;7516;43.570;1.448;2023-12-07T03:00:02;99720.72;;;2.13;100.00
28306;BME280;7516;43.570;1.448;2023-12-07T03:02:32;99709.00;;;2.09;100.00
28306;BME280;7516;43.570;1.448;2023-12-07T03:05:00;99709.81;;;2.10;100.00
28306;BME280;7516;43.570;1.448;2023-12-07T03:07:27;99699.47;;;2.10;100.00
28306;BME280;7516;43.570;1.448;2023-12-07T03:09:55;99702.66;;;2.02;100.00
28306;BME280;7516;43.570;1.448;2023-12-07T03:12:22;99702.19;;;2.08;100.00
28306;BME280;7516;43.570;1.448;2023-12-07T03:14:50;99703.81;;;1.98;100.00
28306;BME280;7516;43.570;1.448;2023-12-07T03:17:19;99700.75;;;2.04;100.00
28306;BME280;7516;43.570;1.448;2023-12-07T03:19:46;99718.16;;;2.02;100.00
28306;BME280;7516;43.570;1.448;2023-12-07T03:22:14;99707.81;;;2.02;100.00
28306;BME280;7516;43.570;1.448;2023-12-07T03:24:45;99701.84;;;2.02;100.00
28306;BME280;7516;43.570;1.448;2023-12-07T03:27:12;99689.97;;;2.10;100.00
28306;BME280;7516;43.570;1.448;2023-12-07T03:29:40;99693.38;;;2.11;100.00
28306;BME280;7516;43.570;1.448;2023-12-07T03:32:08;99700.41;;;2.09;100.00
28306;BME280;7516;43.570;1.448;2023-12-07T03:34:37;99704.06;;;2.06;100.00
28306;BME280;7516;43.570;1.448;2023-12-07T03:37:04;99711.22;;;2.14;100.00
28306;BME280;7516;43.570;1.448;2023-12-07T03:39:32;99713.34;;;2.09;100.00
28306;BME280;7516;43.570;1.448;2023-12-07T03:42:00;99709.66;;;2.11;100.00
28306;BME280;7516;43.570;1.448;2023-12-07T03:44:27;99704.38;;;2.13;100.00
28306;BME280;7516;43.570;1.448;2023-12-07T03:46:55;99701.47;;;2.06;100.00
28306;BME280;7516;43.570;1.448;2023-12-07T03:49:23;99701.13;;;2.00;100.00
28306;BME280;7516;43.570;1.448;2023-12-07T03:51:51;99689.84;;;2.01;100.00
28306;BME280;7516;43.570;1.448;2023-12-07T03:54:19;99682.00;;;2.02;100.00
28306;BME280;7516;43.570;1.448;2023-12-07T03:56:46;99681.03;;;2.03;100.00
28306;BME280;7516;43.570;1.448;2023-12-07T03:59:14;99677.63;;;2.03;100.00
28306;BME280;7516;43.570;1.448;2023-12-07T04:15:21;99697.00;;;2.08;100.00
28306;BME280;7516;43.570;1.448;2023-12-07T04:17:49;99687.59;;;1.96;100.00
28306;BME280;7516;43.570;1.448;2023-12-07T04:20:17;99691.38;;;1.92;100.00
28306;BME280;7516;43.570;1.448;2023-12-07T04:22:45;99686.44;;;2.00;100.00
28306;BME280;7516;43.570;1.448;2023-12-07T04:25:12;99678.81;;;1.99;100.00
28306;BME280;7516;43.570;1.448;2023-12-07T04:27:40;99676.22;;;1.99;100.00
28306;BME280;7516;43.570;1.448;2023-12-07T04:30:09;99685.50;;;2.01;100.00
28306;BME280;7516;43.570;1.448;2023-12-07T04:32:38;99689.47;;;2.05;100.00
28306;BME280;7516;43.570;1.448;2023-12-07T04:35:06;99691.47;;;2.13;100.00
28306;BME280;7516;43.570;1.448;2023-12-07T04:37:34;99696.91;;;2.10;100.00
28306;BME280;7516;43.570;1.448;2023-12-07T04:40:02;99695.69;;;2.14;100.00
28306;BME280;7516;43.570;1.448;2023-12-07T04:42:31;99709.09;;;2.19;100.00
28306;BME280;7516;43.570;1.448;2023-12-07T04:44:58;99700.28;;;2.21;100.00
28306;BME280;7516;43.570;1.448;2023-12-07T04:47:26;99698.88;;;2.17;100.00
28306;BME280;7516;43.570;1.448;2023-12-07T04:49:54;99693.72;;;2.17;100.00
28306;BME280;7516;43.570;1.448;2023-12-07T04:52:22;99682.44;;;2.18;100.00
28306;BME280;7516;43.570;1.448;2023-12-07T04:54:49;99680.91;;;2.16;100.00
28306;BME280;7516;43.570;1.448;2023-12-07T04:57:17;99675.38;;;2.20;100.00
28306;BME280;7516;43.570;1.448;2023-12-07T04:59:44;99674.22;;;2.13;100.00
28306;BME280;7516;43.570;1.448;2023-12-07T05:02:13;99667.16;;;2.15;100.00
28306;BME280;7516;43.570;1.448;2023-12-07T05:04:40;99661.28;;;2.24;100.00
28306;BME280;7516;43.570;1.448;2023-12-07T05:07:12;99656.69;;;2.28;100.00
28306;BME280;7516;43.570;1.448;2023-12-07T05:09:40;99648.56;;;2.33;100.00
28306;BME280;7516;43.570;1.448;2023-12-07T05:12:08;99656.19;;;2.34;100.00
28306;BME280;7516;43.570;1.448;2023-12-07T05:14:36;99657.84;;;2.35;100.00
28306;BME280;7516;43.570;1.448;2023-12-07T05:17:03;99651.34;;;2.41;100.00
28306;BME280;7516;43.570;1.448;2023-12-07T05:19:31;99647.50;;;2.35;100.00
28306;BME280;7516;43.570;1.448;2023-12-07T05:21:58;99644.72;;;2.27;100.00
28306;BME280;7516;43.570;1.448;2023-12-07T05:24:28;99633.53;;;2.26;100.00
28306;BME280;7516;43.570;1.448;2023-12-07T05:26:56;99636.47;;;2.33;100.00
28306;BME280;7516;43.570;1.448;2023-12-07T05:29:23;99629.53;;;2.34;100.00
28306;BME280;7516;43.570;1.448;2023-12-07T05:31:50;99630.47;;;2.33;100.00
28306;BME280;7516;43.570;1.448;2023-12-07T05:34:17;99619.53;;;2.29;100.00
28306;BME280;7516;43.570;1.448;2023-12-07T05:36:45;99609.56;;;2.24;100.00
28306;BME280;7516;43.570;1.448;2023-12-07T05:39:13;99601.13;;;2.22;100.00
28306;BME280;7516;43.570;1.448;2023-12-07T05:41:45;99603.47;;;2.25;100.00
28306;BME280;7516;43.570;1.448;2023-12-07T05:44:12;99583.63;;;2.26;100.00
28306;BME280;7516;43.570;1.448;2023-12-07T05:46:40;99582.78;;;2.25;100.00
28306;BME280;7516;43.570;1.448;2023-12-07T05:49:10;99579.38;;;2.25;100.00
28306;BME280;7516;43.570;1.448;2023-12-07T05:51:38;99584.44;;;2.26;100.00
28306;BME280;7516;43.570;1.448;2023-12-07T05:54:05;99588.59;;;2.39;100.00
28306;BME280;7516;43.570;1.448;2023-12-07T05:56:33;99602.47;;;2.38;100.00
28306;BME280;7516;43.570;1.448;2023-12-07T05:59:01;99597.38;;;2.26;100.00
28306;BME280;7516;43.570;1.448;2023-12-07T06:01:29;99592.44;;;2.23;100.00
28306;BME280;7516;43.570;1.448;2023-12-07T06:03:58;99591.00;;;2.31;100.00
28306;BME280;7516;43.570;1.448;2023-12-07T06:06:25;99585.16;;;2.29;100.00
28306;BME280;7516;43.570;1.448;2023-12-07T06:08:52;99591.91;;;2.41;100.00
28306;BME280;7516;43.570;1.448;2023-12-07T06:11:20;99595.19;;;2.43;100.00
28306;BME280;7516;43.570;1.448;2023-12-07T06:13:47;99600.72;;;2.38;100.00
28306;BME280;7516;43.570;1.448;2023-12-07T06:16:16;99603.28;;;2.38;100.00
28306;BME280;7516;43.570;1.448;2023-12-07T06:18:45;99605.56;;;2.32;100.00
28306;BME280;7516;43.570;1.448;2023-12-07T06:21:14;99609.16;;;2.40;100.00
28306;BME280;7516;43.570;1.448;2023-12-07T06:23:42;99606.47;;;2.42;100.00
28306;BME280;7516;43.570;1.448;2023-12-07T06:26:10;99607.38;;;2.52;100.00
28306;BME280;7516;43.570;1.448;2023-12-07T06:28:38;99602.44;;;2.49;100.00
28306;BME280;7516;43.570;1.448;2023-12-07T06:31:06;99606.31;;;2.54;100.00
28306;BME280;7516;43.570;1.448;2023-12-07T06:33:36;99600.25;;;2.65;100.00
28306;BME280;7516;43.570;1.448;2023-12-07T06:36:04;99603.63;;;2.77;100.00
28306;BME280;7516;43.570;1.448;2023-12-07T06:38:31;99592.22;;;2.79;100.00
28306;BME280;7516;43.570;1.448;2023-12-07T06:40:59;99588.69;;;2.80;100.00
28306;BME280;7516;43.570;1.448;2023-12-07T06:43:26;99576.69;;;2.79;100.00
28306;BME280;7516;43.570;1.448;2023-12-07T06:45:54;99574.81;;;2.81;100.00
28306;BME280;7516;43.570;1.448;2023-12-07T06:48:22;99574.66;;;2.83;100.00
28306;BME280;7516;43.570;1.448;2023-12-07T06:50:50;99576.88;;;2.87;100.00
28306;BME280;7516;43.570;1.448;2023-12-07T06:53:18;99583.28;;;2.93;100.00
28306;BME280;7516;43.570;1.448;2023-12-07T06:55:45;99584.25;;;2.92;100.00
28306;BME280;7516;43.570;1.448;2023-12-07T06:58:13;99585.06;;;2.92;100.00
28306;BME280;7516;43.570;1.448;2023-12-07T07:00:40;99582.59;;;2.91;100.00
28306;BME280;7516;43.570;1.448;2023-12-07T07:03:08;99571.56;;;2.89;100.00
28306;BME280;7516;43.570;1.448;2023-12-07T07:05:35;99580.16;;;2.89;100.00
28306;BME280;7516;43.570;1.448;2023-12-07T07:08:04;99582.03;;;2.87;100.00
28306;BME280;7516;43.570;1.448;2023-12-07T07:10:33;99577.41;;;2.91;100.00
28306;BME280;7516;43.570;1.448;2023-12-07T07:13:01;99573.22;;;2.90;100.00
28306;BME280;7516;43.570;1.448;2023-12-07T07:15:30;99577.00;;;2.86;100.00
28306;BME280;7516;43.570;1.448;2023-12-07T07:17:57;99581.22;;;2.87;100.00
28306;BME280;7516;43.570;1.448;2023-12-07T07:20:25;99589.41;;;2.92;100.00
28306;BME280;7516;43.570;1.448;2023-12-07T07:22:53;99595.88;;;2.97;100.00
28306;BME280;7516;43.570;1.448;2023-12-07T07:25:22;99595.16;;;2.95;100.00
28306;BME280;7516;43.570;1.448;2023-12-07T07:27:49;99593.34;;;3.07;100.00
28306;BME280;7516;43.570;1.448;2023-12-07T07:30:17;99594.16;;;3.08;100.00
28306;BME280;7516;43.570;1.448;2023-12-07T07:32:44;99602.59;;;3.10;100.00
28306;BME280;7516;43.570;1.448;2023-12-07T07:35:12;99593.78;;;3.12;100.00
28306;BME280;7516;43.570;1.448;2023-12-07T07:37:40;99573.63;;;3.16;100.00
28306;BME280;7516;43.570;1.448;2023-12-07T07:40:09;99563.28;;;3.16;100.00
28306;BME280;7516;43.570;1.448;2023-12-07T07:42:39;99566.13;;;3.13;100.00
28306;BME280;7516;43.570;1.448;2023-12-07T07:45:07;99559.06;;;3.15;100.00
28306;BME280;7516;43.570;1.448;2023-12-07T07:47:35;99556.06;;;3.19;100.00
28306;BME280;7516;43.570;1.448;2023-12-07T07:50:03;99554.75;;;3.25;100.00
28306;BME280;7516;43.570;1.448;2023-12-07T07:52:32;99556.69;;;3.32;100.00
28306;BME280;7516;43.570;1.448;2023-12-07T07:55:00;99557.22;;;3.36;100.00
28306;BME280;7516;43.570;1.448;2023-12-07T07:57:28;99550.16;;;3.38;100.00
28306;BME280;7516;43.570;1.448;2023-12-07T07:59:58;99547.97;;;3.43;100.00
28306;BME280;7516;43.570;1.448;2023-12-07T08:02:25;99562.31;;;3.47;100.00
28306;BME280;7516;43.570;1.448;2023-12-07T08:04:53;99562.31;;;3.47;100.00
28306;BME280;7516;43.570;1.448;2023-12-07T08:07:20;99554.59;;;3.57;100.00
28306;BME280;7516;43.570;1.448;2023-12-07T08:09:48;99567.13;;;3.61;100.00
28306;BME280;7516;43.570;1.448;2023-12-07T08:12:15;99557.47;;;3.63;100.00
28306;BME280;7516;43.570;1.448;2023-12-07T08:14:43;99555.97;;;3.70;100.00
28306;BME280;7516;43.570;1.448;2023-12-07T08:17:13;99558.72;;;3.78;100.00
28306;BME280;7516;43.570;1.448;2023-12-07T08:19:42;99544.97;;;3.88;100.00
28306;BME280;7516;43.570;1.448;2023-12-07T08:22:09;99536.56;;;3.95;100.00
28306;BME280;7516;43.570;1.448;2023-12-07T08:24:39;99517.59;;;4.04;100.00
28306;BME280;7516;43.570;1.448;2023-12-07T08:27:07;99514.59;;;4.19;100.00
28306;BME280;7516;43.570;1.448;2023-12-07T08:29:34;99515.56;;;4.37;100.00
28306;BME280;7516;43.570;1.448;2023-12-07T08:32:03;99510.22;;;4.48;100.00
28306;BME280;7516;43.570;1.448;2023-12-07T08:34:32;99516.19;;;4.58;100.00
28306;BME280;7516;43.570;1.448;2023-12-07T08:36:59;99519.19;;;4.82;100.00
28306;BME280;7516;43.570;1.448;2023-12-07T08:39:27;99504.38;;;4.92;100.00
28306;BME280;7516;43.570;1.448;2023-12-07T08:41:55;99500.53;;;4.97;100.00
28306;BME280;7516;43.570;1.448;2023-12-07T08:44:22;99506.41;;;5.08;100.00
28306;BME280;7516;43.570;1.448;2023-12-07T08:46:50;99503.75;;;5.18;100.00
28306;BME280;7516;43.570;1.448;2023-12-07T08:49:18;99506.97;;;5.29;100.00
28306;BME280;7516;43.570;1.448;2023-12-07T08:51:50;99501.63;;;5.31;100.00
28306;BME280;7516;43.570;1.448;2023-12-07T08:54:19;99506.38;;;5.45;100.00
28306;BME280;7516;43.570;1.448;2023-12-07T08:56:46;99509.81;;;5.63;100.00
28306;BME280;7516;43.570;1.448;2023-12-07T08:59:14;99502.91;;;5.72;100.00
28306;BME280;7516;43.570;1.448;2023-12-07T09:01:40;99498.78;;;5.79;100.00
28306;BME280;7516;43.570;1.448;2023-12-07T09:04:08;99495.75;;;5.84;100.00
28306;BME280;7516;43.570;1.448;2023-12-07T09:06:37;99495.72;;;5.93;100.00
28306;BME280;7516;43.570;1.448;2023-12-07T09:09:06;99487.69;;;6.04;100.00
28306;BME280;7516;43.570;1.448;2023-12-07T09:11:33;99495.72;;;6.11;100.00
28306;BME280;7516;43.570;1.448;2023-12-07T09:14:01;99487.09;;;6.11;100.00
28306;BME280;7516;43.570;1.448;2023-12-07T09:16:29;99476.47;;;6.22;100.00
28306;BME280;7516;43.570;1.448;2023-12-07T09:18:56;99474.59;;;6.32;100.00
28306;BME280;7516;43.570;1.448;2023-12-07T09:21:24;99471.72;;;6.43;100.00
28306;BME280;7516;43.570;1.448;2023-12-07T09:23:52;99472.16;;;6.56;100.00
28306;BME280;7516;43.570;1.448;2023-12-07T09:26:21;99459.81;;;6.58;100.00
28306;BME280;7516;43.570;1.448;2023-12-07T09:28:49;99463.78;;;6.70;100.00
28306;BME280;7516;43.570;1.448;2023-12-07T09:31:17;99459.38;;;6.97;100.00
28306;BME280;7516;43.570;1.448;2023-12-07T09:33:45;99443.00;;;7.12;100.00
28306;BME280;7516;43.570;1.448;2023-12-07T09:36:17;99442.28;;;7.28;100.00
28306;BME280;7516;43.570;1.448;2023-12-07T09:38:47;99446.69;;;7.36;100.00
28306;BME280;7516;43.570;1.448;2023-12-07T09:41:16;99435.59;;;7.34;100.00
28306;BME280;7516;43.570;1.448;2023-12-07T09:43:45;99445.06;;;7.43;100.00
28306;BME280;7516;43.570;1.448;2023-12-07T09:46:13;99437.91;;;7.37;100.00
28306;BME280;7516;43.570;1.448;2023-12-07T09:48:43;99441.41;;;7.70;100.00
28306;BME280;7516;43.570;1.448;2023-12-07T09:51:11;99437.81;;;7.63;100.00
28306;BME280;7516;43.570;1.448;2023-12-07T09:53:40;99442.66;;;7.57;100.00
28306;BME280;7516;43.570;1.448;2023-12-07T09:56:10;99443.47;;;7.58;100.00
28306;BME280;7516;43.570;1.448;2023-12-07T09:58:40;99432.56;;;7.54;100.00
28306;BME280;7516;43.570;1.448;2023-12-07T10:01:09;99431.91;;;7.52;100.00
28306;BME280;7516;43.570;1.448;2023-12-07T10:03:41;99420.34;;;7.55;100.00
28306;BME280;7516;43.570;1.448;2023-12-07T10:06:09;99422.16;;;7.71;100.00
28306;BME280;7516;43.570;1.448;2023-12-07T10:08:36;99415.66;;;7.83;100.00
28306;BME280;7516;43.570;1.448;2023-12-07T10:11:05;99407.81;;;7.83;100.00
28306;BME280;7516;43.570;1.448;2023-12-07T10:13:34;99404.75;;;8.04;100.00
28306;BME280;7516;43.570;1.448;2023-12-07T10:16:14;99398.38;;;8.14;100.00
28306;BME280;7516;43.570;1.448;2023-12-07T10:18:43;99396.56;;;8.23;100.00
28306;BME280;7516;43.570;1.448;2023-12-07T10:21:11;99388.09;;;8.21;100.00
28306;BME280;7516;43.570;1.448;2023-12-07T10:23:40;99382.88;;;8.13;100.00
28306;BME280;7516;43.570;1.448;2023-12-07T10:26:11;99386.63;;;8.26;100.00
28306;BME280;7516;43.570;1.448;2023-12-07T10:28:39;99396.91;;;8.36;100.00
28306;BME280;7516;43.570;1.448;2023-12-07T10:31:09;99385.16;;;8.40;100.00
28306;BME280;7516;43.570;1.448;2023-12-07T10:33:38;99389.56;;;8.48;100.00
28306;BME280;7516;43.570;1.448;2023-12-07T10:36:07;99382.84;;;8.61;100.00
28306;BME280;7516;43.570;1.448;2023-12-07T10:38:35;99367.16;;;8.61;100.00
28306;BME280;7516;43.570;1.448;2023-12-07T10:41:05;99363.22;;;8.65;100.00
28306;BME280;7516;43.570;1.448;2023-12-07T10:43:37;99361.06;;;8.77;100.00
28306;BME280;7516;43.570;1.448;2023-12-07T10:46:06;99348.00;;;8.77;100.00
28306;BME280;7516;43.570;1.448;2023-12-07T10:48:35;99346.59;;;8.97;100.00
28306;BME280;7516;43.570;1.448;2023-12-07T10:51:08;99347.28;;;8.91;100.00
28306;BME280;7516;43.570;1.448;2023-12-07T10:53:40;99343.91;;;9.14;100.00
28306;BME280;7516;43.570;1.448;2023-12-07T10:56:12;99339.03;;;9.11;100.00
28306;BME280;7516;43.570;1.448;2023-12-07T10:58:42;99325.63;;;9.14;100.00
28306;BME280;7516;43.570;1.448;2023-12-07T11:01:12;99321.50;;;9.19;100.00
28306;BME280;7516;43.570;1.448;2023-12-07T11:03:41;99308.59;;;9.18;100.00
28306;BME280;7516;43.570;1.448;2023-12-07T11:06:12;99306.28;;;9.23;100.00
28306;BME280;7516;43.570;1.448;2023-12-07T11:08:41;99308.84;;;9.31;100.00
28306;BME280;7516;43.570;1.448;2023-12-07T11:11:15;99288.03;;;9.37;99.40
28306;BME280;7516;43.570;1.448;2023-12-07T11:13:49;99294.66;;;9.48;98.45
28306;BME280;7516;43.570;1.448;2023-12-07T11:16:29;99300.00;;;9.55;99.43
28306;BME280;7516;43.570;1.448;2023-12-07T11:18:57;99289.81;;;9.60;99.03
28306;BME280;7516;43.570;1.448;2023-12-07T11:21:26;99277.69;;;9.67;99.68
28306;BME280;7516;43.570;1.448;2023-12-07T11:23:55;99274.25;;;9.66;99.06
28306;BME280;7516;43.570;1.448;2023-12-07T11:26:24;99284.06;;;9.64;97.00
28306;BME280;7516;43.570;1.448;2023-12-07T11:28:51;99277.78;;;9.73;97.86
28306;BME280;7516;43.570;1.448;2023-12-07T11:31:20;99281.72;;;9.69;98.00
28306;BME280;7516;43.570;1.448;2023-12-07T11:33:48;99291.50;;;9.75;98.59
28306;BME280;7516;43.570;1.448;2023-12-07T11:36:16;99286.25;;;9.75;98.71
28306;BME280;7516;43.570;1.448;2023-12-07T11:39:18;99279.75;;;9.71;97.26
28306;BME280;7516;43.570;1.448;2023-12-07T11:41:51;99281.47;;;9.79;97.81
28306;BME280;7516;43.570;1.448;2023-12-07T11:44:25;99275.91;;;9.82;98.26
28306;BME280;7516;43.570;1.448;2023-12-07T11:47:00;99270.13;;;9.87;99.48
28306;BME280;7516;43.570;1.448;2023-12-07T11:49:27;99259.94;;;9.92;100.00
28306;BME280;7516;43.570;1.448;2023-12-07T11:51:56;99258.56;;;9.96;99.99
28306;BME280;7516;43.570;1.448;2023-12-07T11:54:25;99260.84;;;9.99;99.70
28306;BME280;7516;43.570;1.448;2023-12-07T11:56:53;99259.56;;;9.95;99.83
28306;BME280;7516;43.570;1.448;2023-12-07T11:59:21;99265.63;;;9.95;99.21
28306;BME280;7516;43.570;1.448;2023-12-07T12:01:49;99253.72;;;9.93;99.03
28306;BME280;7516;43.570;1.448;2023-12-07T12:04:17;99253.72;;;9.93;98.28
28306;BME280;7516;43.570;1.448;2023-12-07T12:06:44;99237.47;;;9.97;99.17
28306;BME280;7516;43.570;1.448;2023-12-07T12:09:13;99235.22;;;10.09;99.69
28306;BME280;7516;43.570;1.448;2023-12-07T12:11:46;99231.97;;;10.07;98.93
28306;BME280;7516;43.570;1.448;2023-12-07T12:14:14;99221.13;;;10.10;98.15
28306;BME280;7516;43.570;1.448;2023-12-07T12:16:42;99230.72;;;10.17;98.41
28306;BME280;7516;43.570;1.448;2023-12-07T12:19:10;99226.56;;;10.23;98.22
28306;BME280;7516;43.570;1.448;2023-12-07T12:21:38;99237.56;;;10.33;99.52
28306;BME280;7516;43.570;1.448;2023-12-07T12:24:06;99229.25;;;10.30;98.21
28306;BME280;7516;43.570;1.448;2023-12-07T12:26:35;99227.09;;;10.33;98.65
28306;BME280;7516;43.570;1.448;2023-12-07T12:29:06;99213.38;;;10.31;97.01
28306;BME280;7516;43.570;1.448;2023-12-07T12:31:35;99204.59;;;10.39;99.12
28306;BME280;7516;43.570;1.448;2023-12-07T12:34:03;99196.44;;;10.48;100.00
28306;BME280;7516;43.570;1.448;2023-12-07T12:36:33;99199.72;;;10.50;100.00
28306;BME280;7516;43.570;1.448;2023-12-07T12:39:00;99197.09;;;10.50;100.00
28306;BME280;7516;43.570;1.448;2023-12-07T12:41:31;99192.66;;;10.51;100.00
28306;BME280;7516;43.570;1.448;2023-12-07T12:43:58;99185.84;;;10.56;100.00
28306;BME280;7516;43.570;1.448;2023-12-07T12:46:27;99187.94;;;10.61;99.84
28306;BME280;7516;43.570;1.448;2023-12-07T12:48:56;99179.44;;;10.59;98.27
28306;BME280;7516;43.570;1.448;2023-12-07T12:51:25;99182.59;;;10.69;98.74
28306;BME280;7516;43.570;1.448;2023-12-07T12:53:54;99173.47;;;10.65;97.13
28306;BME280;7516;43.570;1.448;2023-12-07T12:56:22;99162.78;;;10.67;96.65
28306;BME280;7516;43.570;1.448;2023-12-07T12:58:50;99170.03;;;10.65;96.02
28306;BME280;7516;43.570;1.448;2023-12-07T13:01:18;99167.09;;;10.74;96.10
28306;BME280;7516;43.570;1.448;2023-12-07T13:03:48;99154.00;;;10.74;96.24
28306;BME280;7516;43.570;1.448;2023-12-07T13:06:16;99155.25;;;10.78;95.12
28306;BME280;7516;43.570;1.448;2023-12-07T13:08:44;99141.66;;;10.68;94.40
28306;BME280;7516;43.570;1.448;2023-12-07T13:11:15;99138.59;;;10.65;93.68
28306;BME280;7516;43.570;1.448;2023-12-07T13:13:43;99133.97;;;10.67;95.76
28306;BME280;7516;43.570;1.448;2023-12-07T13:16:11;99140.03;;;10.67;94.67
28306;BME280;7516;43.570;1.448;2023-12-07T13:18:40;99146.00;;;10.82;96.75
28306;BME280;7516;43.570;1.448;2023-12-07T13:21:10;99138.97;;;10.83;96.62
28306;BME280;7516;43.570;1.448;2023-12-07T13:23:37;99135.25;;;10.71;95.55
28306;BME280;7516;43.570;1.448;2023-12-07T13:26:05;99140.47;;;10.71;95.23
28306;BME280;7516;43.570;1.448;2023-12-07T13:28:33;99134.97;;;10.66;95.04
28306;BME280;7516;43.570;1.448;2023-12-07T13:31:01;99137.59;;;10.66;94.34
28306;BME280;7516;43.570;1.448;2023-12-07T13:33:28;99123.88;;;10.64;93.60